createdAt,value
2018-09-26T00:00:50.642Z,10.10
2018-09-26T00:03:35.991Z,10.12
2018-09-26T00:06:13.289Z,10.13
2018-09-26T00:08:51.397Z,10.14
2018-09-26T00:11:29.870Z,10.14
2018-09-26T00:14:09.829Z,10.16
2018-09-26T00:16:46.593Z,10.15
2018-09-26T00:19:24.774Z,10.14
2018-09-26T00:22:01.057Z,10.13
2018-09-26T00:24:38.330Z,10.10
2018-09-26T00:27:15.148Z,10.07
2018-09-26T00:29:44.711Z,10.03
2018-09-26T00:32:14.278Z,9.99
2018-09-26T00:34:43.971Z,9.97
2018-09-26T00:37:13.523Z,9.96
2018-09-26T00:39:43.130Z,9.96
2018-09-26T00:42:12.706Z,9.95
2018-09-26T00:44:42.941Z,9.94
2018-09-26T00:47:12.566Z,9.93
2018-09-26T00:49:42.182Z,9.91
2018-09-26T00:52:12.809Z,9.90
2018-09-26T00:54:42.475Z,9.87
2018-09-26T00:57:12.089Z,9.86
2018-09-26T00:59:42.762Z,9.87
2018-09-26T01:02:12.325Z,9.86
2018-09-26T01:04:41.942Z,9.84
2018-09-26T01:07:11.585Z,9.84
2018-09-26T01:09:41.123Z,9.83
2018-09-26T01:12:10.784Z,9.82
2018-09-26T01:14:40.405Z,9.82
2018-09-26T01:17:10.114Z,9.84
2018-09-26T01:19:39.699Z,9.83
2018-09-26T01:22:09.413Z,9.85
2018-09-26T01:24:39.066Z,9.84
2018-09-26T01:27:09.214Z,9.83
2018-09-26T01:29:39.952Z,9.83
2018-09-26T01:32:09.517Z,9.83
2018-09-26T01:34:39.123Z,9.84
2018-09-26T01:37:08.762Z,9.86
2018-09-26T01:39:38.341Z,9.86
2018-09-26T01:42:07.990Z,9.86
2018-09-26T01:44:37.605Z,9.86
2018-09-26T01:47:07.422Z,9.86
2018-09-26T01:49:37.016Z,9.87
2018-09-26T01:52:06.655Z,9.86
2018-09-26T01:54:36.601Z,9.87
2018-09-26T01:57:06.920Z,9.87
2018-09-26T01:59:36.548Z,9.89
2018-09-26T02:02:06.732Z,9.89
2018-09-26T02:04:36.496Z,9.91
2018-09-26T02:07:06.460Z,9.92
2018-09-26T02:09:44.424Z,9.94
2018-09-26T02:12:14.640Z,9.96
2018-09-26T02:14:44.241Z,9.99
2018-09-26T02:17:13.810Z,9.98
2018-09-26T02:19:43.404Z,9.98
2018-09-26T02:22:13.021Z,9.99
2018-09-26T02:24:42.593Z,9.98
2018-09-26T02:27:12.185Z,10.00
2018-09-26T02:29:41.893Z,9.98
2018-09-26T02:32:11.509Z,9.97
2018-09-26T02:34:41.091Z,9.95
2018-09-26T02:37:10.662Z,10.06
2018-09-26T02:39:40.931Z,9.99
2018-09-26T02:42:10.608Z,9.92
2018-09-26T02:44:40.158Z,9.88
2018-09-26T02:47:11.542Z,9.84
2018-09-26T02:49:41.148Z,9.80
2018-09-26T02:52:10.717Z,9.77
2018-09-26T02:54:40.268Z,9.74
2018-09-26T02:57:09.930Z,9.72
2018-09-26T02:59:39.507Z,9.74
2018-09-26T03:02:09.168Z,9.71
2018-09-26T03:04:38.712Z,9.69
2018-09-26T03:07:08.597Z,9.70
2018-09-26T03:09:38.211Z,9.72
2018-09-26T03:12:07.777Z,9.73
2018-09-26T03:14:37.665Z,9.74
2018-09-26T03:17:07.502Z,9.76
2018-09-26T03:19:37.359Z,9.77
2018-09-26T03:22:06.955Z,9.79
2018-09-26T03:24:36.517Z,9.80
2018-09-26T03:27:06.281Z,9.80
2018-09-26T03:29:35.847Z,9.79
2018-09-26T03:32:06.262Z,9.79
2018-09-26T03:34:35.954Z,9.78
2018-09-26T03:37:06.778Z,9.77
2018-09-26T03:39:36.422Z,9.77
2018-09-26T03:42:06.669Z,9.77
2018-09-26T03:44:36.296Z,9.77
2018-09-26T03:47:06.613Z,9.77
2018-09-26T03:49:36.229Z,9.77
2018-09-26T03:52:06.840Z,9.78
2018-09-26T03:54:36.915Z,9.78
2018-09-26T03:57:06.736Z,9.79
2018-09-26T03:59:36.338Z,9.81
2018-09-26T04:02:07.156Z,9.83
2018-09-26T04:04:36.733Z,9.85
2018-09-26T04:07:06.737Z,9.87
2018-09-26T04:09:36.288Z,9.89
2018-09-26T04:12:06.637Z,9.92
2018-09-26T04:14:36.198Z,9.96
2018-09-26T04:17:06.303Z,9.99
2018-09-26T04:19:36.371Z,10.03
2018-09-26T04:22:06.493Z,10.06
2018-09-26T04:24:36.150Z,10.10
2018-09-26T04:27:06.740Z,10.13
2018-09-26T04:29:37.475Z,10.14
2018-09-26T04:32:07.466Z,10.17
2018-09-26T04:34:37.042Z,10.21
2018-09-26T04:37:06.909Z,10.23
2018-09-26T04:39:36.840Z,10.26
2018-09-26T04:42:06.778Z,10.29
2018-09-26T04:44:36.390Z,10.32
2018-09-26T04:47:06.351Z,10.33
2018-09-26T04:49:36.080Z,10.35
2018-09-26T04:52:06.625Z,10.37
2018-09-26T04:54:36.399Z,10.39
2018-09-26T04:57:06.759Z,10.40
2018-09-26T04:59:36.497Z,10.41
2018-09-26T05:02:06.649Z,10.40
2018-09-26T05:04:36.317Z,10.40
2018-09-26T05:07:07.222Z,10.39
2018-09-26T05:09:37.217Z,10.39
2018-09-26T05:12:07.098Z,10.40
2018-09-26T05:14:36.814Z,10.38
2018-09-26T05:17:06.475Z,10.28
2018-09-26T05:19:36.163Z,10.35
2018-09-26T05:22:06.621Z,10.33
2018-09-26T05:24:36.563Z,10.31
2018-09-26T05:27:06.670Z,10.30
2018-09-26T05:29:36.318Z,10.30
2018-09-26T05:32:07.065Z,10.30
2018-09-26T05:34:36.944Z,10.29
2018-09-26T05:37:06.630Z,10.28
2018-09-26T05:39:36.304Z,10.27
2018-09-26T05:42:06.353Z,10.26
2018-09-26T05:44:36.077Z,10.26
2018-09-26T05:47:13.275Z,10.25
2018-09-26T05:49:48.751Z,10.23
2018-09-26T05:52:18.392Z,10.22
2018-09-26T05:54:47.962Z,10.22
2018-09-26T05:57:17.546Z,10.22
2018-09-26T05:59:47.266Z,10.22
2018-09-26T06:02:16.941Z,10.25
2018-09-26T06:04:46.582Z,10.26
2018-09-26T06:07:16.306Z,10.28
2018-09-26T06:09:46.049Z,10.51
2018-09-26T06:12:15.760Z,10.51
2018-09-26T06:14:50.584Z,10.53
2018-09-26T06:17:28.695Z,10.54
2018-09-26T06:19:58.476Z,10.57
2018-09-26T06:22:28.240Z,10.59
2018-09-26T06:25:03.169Z,10.62
2018-09-26T06:27:32.918Z,10.66
2018-09-26T06:30:02.850Z,10.68
2018-09-26T06:32:32.716Z,10.94
2018-09-26T06:35:02.947Z,10.94
2018-09-26T06:37:35.160Z,10.95
2018-09-26T06:40:22.099Z,10.98
2018-09-26T06:42:51.833Z,11.02
2018-09-26T06:45:21.530Z,10.99
2018-09-26T06:47:51.220Z,11.11
2018-09-26T06:50:20.881Z,11.16
2018-09-26T06:52:50.606Z,11.22
2018-09-26T06:55:21.841Z,11.29
2018-09-26T06:57:53.859Z,11.35
2018-09-26T07:00:23.570Z,11.39
2018-09-26T07:02:53.178Z,11.44
2018-09-26T07:05:22.917Z,11.52
2018-09-26T07:07:52.569Z,11.58
2018-09-26T07:10:22.231Z,11.67
2018-09-26T07:12:51.918Z,11.76
2018-09-26T07:15:21.599Z,11.85
2018-09-26T07:17:51.460Z,11.92
2018-09-26T07:20:22.012Z,12.01
2018-09-26T07:22:52.103Z,12.12
2018-09-26T07:25:21.911Z,12.20
2018-09-26T07:27:51.561Z,12.27
2018-09-26T07:30:21.276Z,12.34
2018-09-26T07:32:50.963Z,12.41
2018-09-26T07:35:20.830Z,12.47
2018-09-26T07:37:50.445Z,12.54
2018-09-26T07:40:20.173Z,12.60
2018-09-26T07:42:49.957Z,12.63
2018-09-26T07:45:19.581Z,12.66
2018-09-26T07:47:49.358Z,12.68
2018-09-26T07:50:20.178Z,12.70
2018-09-26T07:52:54.081Z,12.73
2018-09-26T07:55:23.958Z,12.78
2018-09-26T07:57:53.612Z,12.82
2018-09-26T08:00:23.255Z,12.90
2018-09-26T08:02:52.903Z,12.96
2018-09-26T08:05:22.672Z,13.01
2018-09-26T08:07:52.411Z,13.07
2018-09-26T08:10:22.170Z,13.15
2018-09-26T08:12:51.981Z,13.27
2018-09-26T08:15:22.836Z,13.38
2018-09-26T08:17:52.538Z,13.45
2018-09-26T08:20:22.282Z,13.52
2018-09-26T08:22:52.135Z,13.64
2018-09-26T08:25:21.937Z,13.76
2018-09-26T08:27:51.529Z,13.90
2018-09-26T08:30:21.290Z,14.02
2018-09-26T08:32:51.086Z,14.16
2018-09-26T08:35:22.280Z,14.30
2018-09-26T08:37:51.967Z,14.45
2018-09-26T08:40:21.762Z,14.63
2018-09-26T08:42:52.217Z,14.75
2018-09-26T08:45:22.357Z,14.87
2018-09-26T08:47:51.947Z,15.03
2018-09-26T08:50:21.644Z,15.15
2018-09-26T08:52:51.344Z,15.25
2018-09-26T08:55:21.181Z,15.34
2018-09-26T08:57:50.880Z,15.45
2018-09-26T09:00:25.539Z,15.55
2018-09-26T09:02:55.986Z,15.64
2018-09-26T09:05:26.445Z,15.78
2018-09-26T09:08:00.201Z,15.92
2018-09-26T09:10:30.187Z,16.03
2018-09-26T09:13:11.087Z,16.14
2018-09-26T09:15:56.784Z,16.20
2018-09-26T09:18:26.672Z,16.35
2018-09-26T09:20:56.312Z,16.52
2018-09-26T09:23:31.214Z,16.70
2018-09-26T09:26:09.567Z,16.80
2018-09-26T09:28:48.227Z,16.86
2018-09-26T09:31:17.941Z,16.94
2018-09-26T09:33:49.121Z,16.94
2018-09-26T09:36:18.833Z,16.85
2018-09-26T09:38:48.561Z,16.79
2018-09-26T09:41:20.482Z,16.77
2018-09-26T09:44:16.063Z,16.84
2018-09-26T09:46:46.237Z,16.91
2018-09-26T09:49:15.892Z,17.00
2018-09-26T09:51:45.612Z,17.12
2018-09-26T09:54:15.355Z,17.22
2018-09-26T09:56:45.028Z,17.28
2018-09-26T09:59:18.560Z,17.32
2018-09-26T10:01:48.301Z,17.36
2018-09-26T10:04:18.000Z,17.42
2018-09-26T10:06:47.709Z,17.49
2018-09-26T10:09:17.315Z,17.58
2018-09-26T10:11:46.929Z,17.72
2018-09-26T10:14:16.683Z,17.86
2018-09-26T10:16:46.441Z,17.93
2018-09-26T10:19:16.080Z,17.98
2018-09-26T10:21:45.730Z,17.99
2018-09-26T10:24:15.631Z,18.06
2018-09-26T10:26:53.049Z,18.11
2018-09-26T10:29:23.217Z,18.19
2018-09-26T10:31:52.975Z,18.29
2018-09-26T10:34:22.918Z,18.43
2018-09-26T10:36:52.597Z,18.58
2018-09-26T10:39:22.330Z,18.73
2018-09-26T10:41:51.996Z,18.74
2018-09-26T10:44:21.706Z,18.78
2018-09-26T10:46:51.347Z,18.90
2018-09-26T10:49:21.978Z,19.01
2018-09-26T10:51:53.041Z,19.10
2018-09-26T10:54:22.781Z,19.25
2018-09-26T10:56:52.534Z,19.31
2018-09-26T10:59:22.134Z,19.37
2018-09-26T11:01:51.921Z,19.42
2018-09-26T11:04:21.620Z,19.42
2018-09-26T11:06:51.387Z,19.48
2018-09-26T11:09:21.026Z,19.48
2018-09-26T11:11:50.671Z,19.48
2018-09-26T11:14:20.738Z,19.54
2018-09-26T11:16:53.328Z,19.61
2018-09-26T11:19:23.300Z,19.65
2018-09-26T11:21:53.241Z,19.83
2018-09-26T11:24:23.040Z,19.90
2018-09-26T11:26:52.649Z,20.00
2018-09-26T11:29:22.301Z,20.18
2018-09-26T11:31:51.974Z,20.31
2018-09-26T11:34:21.616Z,20.51
2018-09-26T11:36:51.165Z,20.76
2018-09-26T11:39:20.807Z,20.99
2018-09-26T11:41:50.630Z,21.17
2018-09-26T11:44:20.564Z,21.26
2018-09-26T11:46:50.181Z,21.33
2018-09-26T11:49:19.802Z,21.34
2018-09-26T11:51:49.575Z,21.27
2018-09-26T11:54:19.238Z,21.30
2018-09-26T11:56:48.966Z,21.33
2018-09-26T11:59:18.573Z,21.38
2018-09-26T12:04:17.537Z,21.54
2018-09-26T12:06:47.108Z,21.74
2018-09-26T12:09:16.754Z,21.88
2018-09-26T12:11:46.775Z,22.08
2018-09-26T12:14:16.878Z,22.19
2018-09-26T12:16:47.180Z,22.42
2018-09-26T12:19:17.093Z,22.48
2018-09-26T12:21:46.687Z,22.57
2018-09-26T12:24:16.291Z,22.64
2018-09-26T12:26:45.952Z,22.89
2018-09-26T12:29:15.768Z,22.94
2018-09-26T12:31:45.419Z,23.03
2018-09-26T12:34:15.182Z,23.54
2018-09-26T12:36:44.734Z,23.64
2018-09-26T12:39:14.415Z,23.85
2018-09-26T12:41:47.077Z,23.92
2018-09-26T12:44:16.777Z,23.96
2018-09-26T12:46:46.532Z,24.10
2018-09-26T12:49:16.175Z,24.41
2018-09-26T12:51:45.849Z,24.59
2018-09-26T12:54:15.466Z,24.76
2018-09-26T12:56:45.130Z,24.94
2018-09-26T12:59:15.108Z,25.10
2018-09-26T13:01:44.934Z,25.18
2018-09-26T13:04:14.659Z,25.28
2018-09-26T13:06:44.323Z,25.38
2018-09-26T13:09:14.084Z,25.58
2018-09-26T13:11:43.705Z,25.67
2018-09-26T13:14:13.453Z,25.42
2018-09-26T13:16:43.238Z,25.12
2018-09-26T13:19:12.860Z,25.34
2018-09-26T13:21:42.626Z,25.76
2018-09-26T13:24:12.345Z,25.93
2018-09-26T13:26:41.887Z,26.12
2018-09-26T13:29:11.485Z,26.20
2018-09-26T13:31:41.088Z,26.24
2018-09-26T13:34:10.719Z,26.55
2018-09-26T13:36:41.803Z,26.88
2018-09-26T13:39:11.520Z,26.96
2018-09-26T13:41:41.242Z,26.92
2018-09-26T13:44:11.019Z,26.88
2018-09-26T13:46:40.692Z,26.60
2018-09-26T13:49:10.230Z,26.49
2018-09-26T13:51:39.994Z,26.66
2018-09-26T13:54:09.711Z,26.05
2018-09-26T13:56:39.382Z,25.34
2018-09-26T13:59:09.039Z,24.84
2018-09-26T14:01:39.049Z,24.98
2018-09-26T14:04:09.314Z,25.34
2018-09-26T14:06:39.117Z,25.45
2018-09-26T14:09:08.905Z,25.45
2018-09-26T14:11:38.555Z,25.37
2018-09-26T14:14:08.307Z,25.01
2018-09-26T14:16:37.913Z,25.15
2018-09-26T14:19:07.545Z,25.69
2018-09-26T14:21:39.395Z,25.75
2018-09-26T14:24:09.099Z,25.54
2018-09-26T14:26:39.381Z,25.38
2018-09-26T14:29:12.373Z,24.89
2018-09-26T14:31:42.107Z,24.89
2018-09-26T14:34:12.064Z,25.02
2018-09-26T14:36:41.824Z,25.42
2018-09-26T14:39:12.141Z,25.63
2018-09-26T14:41:41.784Z,26.31
2018-09-26T14:44:11.463Z,26.60
2018-09-26T14:46:41.263Z,26.54
2018-09-26T14:49:11.191Z,26.56
2018-09-26T14:51:41.383Z,26.67
2018-09-26T14:54:11.063Z,27.04
2018-09-26T14:56:41.007Z,27.09
2018-09-26T14:59:10.686Z,27.17
2018-09-26T15:01:40.457Z,26.95
2018-09-26T15:04:10.458Z,26.72
2018-09-26T15:06:40.133Z,26.64
2018-09-26T15:09:09.921Z,26.55
2018-09-26T15:11:40.894Z,26.36
2018-09-26T15:14:10.699Z,25.64
2018-09-26T15:16:40.576Z,24.99
2018-09-26T15:19:10.669Z,24.51
2018-09-26T15:21:41.789Z,24.10
2018-09-26T15:24:11.687Z,23.66
2018-09-26T15:26:41.513Z,23.12
2018-09-26T15:29:11.165Z,22.78
2018-09-26T15:31:40.983Z,22.52
2018-09-26T15:34:10.781Z,22.30
2018-09-26T15:36:41.152Z,22.07
2018-09-26T15:39:12.357Z,21.84
2018-09-26T15:41:42.332Z,22.51
2018-09-26T15:44:12.897Z,23.56
2018-09-26T15:46:42.633Z,23.75
2018-09-26T15:49:12.312Z,23.72
2018-09-26T15:51:42.103Z,23.84
2018-09-26T15:54:11.899Z,23.61
2018-09-26T15:56:41.645Z,23.00
2018-09-26T15:59:11.944Z,22.34
2018-09-26T16:01:41.666Z,21.98
2018-09-26T16:04:11.340Z,21.68
2018-09-26T16:06:42.228Z,21.52
2018-09-26T16:09:12.558Z,21.43
2018-09-26T16:11:42.370Z,21.35
2018-09-26T16:14:12.135Z,21.29
2018-09-26T16:16:42.403Z,21.13
2018-09-26T16:19:12.120Z,20.97
2018-09-26T16:21:43.144Z,20.89
2018-09-26T16:24:12.837Z,20.82
2018-09-26T16:26:42.515Z,20.75
2018-09-26T16:29:12.090Z,20.63
2018-09-26T16:31:41.744Z,20.48
2018-09-26T16:34:13.194Z,20.35
2018-09-26T16:36:42.862Z,20.28
2018-09-26T16:39:14.167Z,20.27
2018-09-26T16:41:44.753Z,20.13
2018-09-26T16:44:14.914Z,20.08
2018-09-26T16:46:44.549Z,19.94
2018-09-26T16:49:14.298Z,19.82
2018-09-26T16:51:44.031Z,19.69
2018-09-26T16:54:13.792Z,19.59
2018-09-26T16:56:43.508Z,19.49
2018-09-26T16:59:14.824Z,19.41
2018-09-26T17:01:44.477Z,19.35
2018-09-26T17:04:14.169Z,19.29
2018-09-26T17:06:43.862Z,19.24
2018-09-26T17:09:13.472Z,19.16
2018-09-26T17:11:43.139Z,19.11
2018-09-26T17:14:12.898Z,19.06
2018-09-26T17:16:42.626Z,19.04
2018-09-26T17:19:12.538Z,19.01
2018-09-26T17:21:42.168Z,18.98
2018-09-26T17:24:11.930Z,18.94
2018-09-26T17:26:42.940Z,18.90
2018-09-26T17:29:12.607Z,18.86
2018-09-26T17:31:42.278Z,18.85
2018-09-26T17:34:11.994Z,18.83
2018-09-26T17:36:41.597Z,18.81
2018-09-26T17:39:11.553Z,18.78
2018-09-26T17:41:41.202Z,18.75
2018-09-26T17:44:10.994Z,18.73
2018-09-26T17:46:40.767Z,18.69
2018-09-26T17:49:10.484Z,18.65
2018-09-26T17:51:40.186Z,18.62
2018-09-26T17:54:10.971Z,18.59
2018-09-26T17:56:40.611Z,18.55
2018-09-26T17:59:11.038Z,18.52
2018-09-26T18:01:40.798Z,18.49
2018-09-26T18:04:10.600Z,18.46
2018-09-26T18:06:40.155Z,18.44
2018-09-26T18:09:11.816Z,18.41
2018-09-26T18:11:41.538Z,18.39
2018-09-26T18:14:11.170Z,18.36
2018-09-26T18:16:40.850Z,18.36
2018-09-26T18:19:10.564Z,18.34
2018-09-26T18:21:44.456Z,18.34
2018-09-26T18:24:14.237Z,18.31
2018-09-26T18:26:43.891Z,18.30
2018-09-26T18:29:13.505Z,18.28
2018-09-26T18:31:43.185Z,18.26
2018-09-26T18:34:12.859Z,18.24
2018-09-26T18:36:42.587Z,18.24
2018-09-26T18:39:12.570Z,18.24
2018-09-26T18:41:42.251Z,18.22
2018-09-26T18:44:11.849Z,18.19
2018-09-26T18:46:41.513Z,18.19
2018-09-26T18:49:12.348Z,18.17
2018-09-26T18:51:43.055Z,18.13
2018-09-26T18:54:12.681Z,18.12
2018-09-26T18:56:42.306Z,18.11
2018-09-26T18:59:11.864Z,18.11
2018-09-26T19:01:41.457Z,18.12
2018-09-26T19:04:11.337Z,18.11
2018-09-26T19:06:41.105Z,18.10
2018-09-26T19:09:11.543Z,18.10
2018-09-26T19:11:41.279Z,18.09
2018-09-26T19:14:10.957Z,18.16
2018-09-26T19:16:40.591Z,18.12
2018-09-26T19:19:10.285Z,18.09
2018-09-26T19:21:41.740Z,18.08
2018-09-26T19:24:11.392Z,18.07
2018-09-26T19:26:41.047Z,18.05
2018-09-26T19:29:10.755Z,18.04
2018-09-26T19:31:40.599Z,18.03
2018-09-26T19:34:10.266Z,17.94
2018-09-26T19:36:39.939Z,17.99
2018-09-26T19:39:11.021Z,17.96
2018-09-26T19:41:40.828Z,17.96
2018-09-26T19:44:12.352Z,17.94
2018-09-26T19:46:43.059Z,17.94
2018-09-26T19:49:12.733Z,17.93
2018-09-26T19:51:42.450Z,17.94
2018-09-26T19:54:12.124Z,17.92
2018-09-26T19:56:41.799Z,17.91
2018-09-26T19:59:11.439Z,17.91
2018-09-26T20:01:41.057Z,17.92
2018-09-26T20:04:10.891Z,17.89
2018-09-26T20:06:40.583Z,17.87
2018-09-26T20:09:12.051Z,17.87
2018-09-26T20:11:42.179Z,17.86
2018-09-26T20:14:13.100Z,17.85
2018-09-26T20:16:42.800Z,17.85
2018-09-26T20:19:12.560Z,17.85
2018-09-26T20:21:42.201Z,17.83
2018-09-26T20:24:11.895Z,17.82
2018-09-26T20:26:41.634Z,17.81
2018-09-26T20:29:11.268Z,17.82
2018-09-26T20:31:40.875Z,17.79
2018-09-26T20:34:10.560Z,17.77
2018-09-26T20:36:40.229Z,17.77
2018-09-26T20:39:11.760Z,17.75
2018-09-26T20:41:41.550Z,17.74
2018-09-26T20:44:11.182Z,17.74
2018-09-26T20:46:40.779Z,17.72
2018-09-26T20:49:10.641Z,17.72
2018-09-26T20:51:41.360Z,17.71
2018-09-26T20:54:10.993Z,17.69
2018-09-26T20:56:40.629Z,17.67
2018-09-26T20:59:10.264Z,17.66
2018-09-26T21:01:39.817Z,17.63
2018-09-26T21:04:09.490Z,17.59
2018-09-26T21:06:39.151Z,17.54
2018-09-26T21:09:18.160Z,17.50
2018-09-26T21:11:47.864Z,17.37
2018-09-26T21:14:17.612Z,17.26
2018-09-26T21:16:47.329Z,17.15
2018-09-26T21:19:16.954Z,17.06
2018-09-26T21:21:46.617Z,16.99
2018-09-26T21:24:16.262Z,16.93
2018-09-26T21:26:45.889Z,16.86
2018-09-26T21:29:15.543Z,16.80
2018-09-26T21:31:45.427Z,16.75
2018-09-26T21:34:15.667Z,16.70
2018-09-26T21:36:45.362Z,16.65
2018-09-26T21:39:14.959Z,16.63
2018-09-26T21:41:44.838Z,16.57
2018-09-26T21:44:14.454Z,16.55
2018-09-26T21:46:44.111Z,16.51
2018-09-26T21:49:13.675Z,16.46
2018-09-26T21:51:43.230Z,16.43
2018-09-26T21:54:12.854Z,16.40
2018-09-26T21:56:42.477Z,16.37
2018-09-26T21:59:12.079Z,16.33
2018-09-26T22:01:41.746Z,16.32
2018-09-26T22:04:12.556Z,16.29
2018-09-26T22:06:42.131Z,16.26
2018-09-26T22:09:11.810Z,16.23
2018-09-26T22:11:44.696Z,16.19
2018-09-26T22:14:14.226Z,16.17
2018-09-26T22:16:43.805Z,16.15
2018-09-26T22:19:13.446Z,16.13
2018-09-26T22:21:43.074Z,16.10
2018-09-26T22:24:12.658Z,16.05
2018-09-26T22:26:42.239Z,16.03
2018-09-26T22:29:11.906Z,15.99
2018-09-26T22:31:41.577Z,15.96
2018-09-26T22:34:11.134Z,15.94
2018-09-26T22:36:40.725Z,15.90
2018-09-26T22:39:11.150Z,15.88
2018-09-26T22:41:40.844Z,15.86
2018-09-26T22:44:10.572Z,15.81
2018-09-26T22:46:40.140Z,15.80
2018-09-26T22:49:09.709Z,15.76
2018-09-26T22:51:39.353Z,15.73
2018-09-26T22:54:08.989Z,15.70
2018-09-26T22:56:38.731Z,15.68
2018-09-26T22:59:08.402Z,15.63
2018-09-26T23:01:37.948Z,15.59
2018-09-26T23:04:07.850Z,15.57
2018-09-26T23:06:46.046Z,15.46
2018-09-26T23:09:24.596Z,15.48
2018-09-26T23:12:02.134Z,15.43
2018-09-26T23:14:39.577Z,15.39
2018-09-26T23:17:16.626Z,15.37
2018-09-26T23:19:52.750Z,15.32
2018-09-26T23:22:30.806Z,15.29
2018-09-26T23:25:05.620Z,15.26
2018-09-26T23:27:42.835Z,15.23
2018-09-26T23:30:18.803Z,15.19
2018-09-26T23:32:55.553Z,15.16
2018-09-26T23:35:31.565Z,15.12
2018-09-26T23:38:08.428Z,15.10
2018-09-26T23:40:46.159Z,15.08
2018-09-26T23:43:24.079Z,15.05
2018-09-26T23:46:01.886Z,15.01
2018-09-26T23:48:38.950Z,14.97
2018-09-26T23:51:15.431Z,14.95
2018-09-26T23:53:53.233Z,14.91
2018-09-26T23:56:30.340Z,14.88
2018-09-26T23:59:07.785Z,14.84
